DEMXB EDLW-EDGS
Flight info
| Callsign | DEMXB |
|---|---|
| Flight time | 1h 10m |
| Altitude | 5000 |
| Route | DOR DCT 5135N00737E DCT EDLM DCT 5134N00659E 5127N00653E 5124N00645E 5122N00627E 5118N00619E 5112N00616E 5109N00625E 5060N00653E DCT KBO DCT EDKB DCT 5032N00731E DCT 5043N00757E |
| Aircraft | PA24/L-SFGRY/S |
Departure
| Time | 2026-04-26 15:02 |
|---|---|
| Airport | Dortmund Airport (EDLW) |
Arrival
| Time | 2026-04-26 16:12 |
|---|---|
| Airport | Siegerland Airport (EDGS) |
| Time | Latitude | Longitude | Altitude | Speed | Heading |
|---|---|---|---|---|---|
| 2026-04-26 14:44 | 51.51675 | 7.61594 | 425 ft | 0 kts | 335° |
| 2026-04-26 14:53 | 51.51682 | 7.61588 | 424 ft | 5 kts | 333° |
| 2026-04-26 14:53 | 51.51703 | 7.61534 | 421 ft | 7 kts | 254° |
| 2026-04-26 14:53 | 51.51685 | 7.61467 | 422 ft | 6 kts | 276° |
| 2026-04-26 14:54 | 51.51705 | 7.61410 | 416 ft | 6 kts | 250° |
| 2026-04-26 14:54 | 51.51684 | 7.61344 | 415 ft | 8 kts | 240° |
| 2026-04-26 14:54 | 51.51648 | 7.61247 | 423 ft | 13 kts | 238° |
| 2026-04-26 14:54 | 51.51600 | 7.61105 | 421 ft | 14 kts | 242° |
| 2026-04-26 14:55 | 51.51571 | 7.60976 | 422 ft | 11 kts | 256° |
| 2026-04-26 14:55 | 51.51550 | 7.60855 | 416 ft | 13 kts | 256° |
| 2026-04-26 14:55 | 51.51526 | 7.60727 | 417 ft | 9 kts | 254° |
| 2026-04-26 14:55 | 51.51526 | 7.60685 | 416 ft | 0 kts | 321° |
| 2026-04-26 14:56 | 51.51528 | 7.60683 | 416 ft | 0 kts | 345° |
| 2026-04-26 15:00 | 51.51531 | 7.60679 | 415 ft | 4 kts | 303° |
| 2026-04-26 15:00 | 51.51550 | 7.60628 | 415 ft | 6 kts | 322° |
| 2026-04-26 15:00 | 51.51576 | 7.60607 | 415 ft | 7 kts | 354° |
| 2026-04-26 15:00 | 51.51636 | 7.60665 | 416 ft | 15 kts | 61° |
| 2026-04-26 15:01 | 51.51771 | 7.61034 | 418 ft | 69 kts | 62° |
| 2026-04-26 15:01 | 51.52019 | 7.61816 | 544 ft | 82 kts | 57° |
| 2026-04-26 15:01 | 51.52275 | 7.62654 | 707 ft | 89 kts | 57° |
| 2026-04-26 15:01 | 51.52771 | 7.63200 | 992 ft | 92 kts | 356° |
| 2026-04-26 15:02 | 51.53396 | 7.63020 | 1221 ft | 94 kts | 354° |
| 2026-04-26 15:02 | 51.54046 | 7.62897 | 1429 ft | 94 kts | 354° |
| 2026-04-26 15:02 | 51.54696 | 7.62718 | 1587 ft | 96 kts | 351° |
| 2026-04-26 15:02 | 51.55349 | 7.62511 | 1805 ft | 94 kts | 351° |
| 2026-04-26 15:03 | 51.55982 | 7.62295 | 2011 ft | 94 kts | 353° |
| 2026-04-26 15:03 | 51.56628 | 7.62120 | 2198 ft | 95 kts | 354° |
| 2026-04-26 15:03 | 51.57277 | 7.61955 | 2395 ft | 93 kts | 358° |
| 2026-04-26 15:03 | 51.57937 | 7.61901 | 2592 ft | 97 kts | 356° |
| 2026-04-26 15:04 | 51.58569 | 7.61516 | 2775 ft | 100 kts | 326° |
| 2026-04-26 15:04 | 51.58989 | 7.60613 | 2983 ft | 103 kts | 292° |
| 2026-04-26 15:04 | 51.59137 | 7.59472 | 3190 ft | 103 kts | 281° |
| 2026-04-26 15:04 | 51.59319 | 7.58363 | 3365 ft | 103 kts | 283° |
| 2026-04-26 15:05 | 51.59460 | 7.57218 | 3507 ft | 108 kts | 282° |
| 2026-04-26 15:05 | 51.59566 | 7.56385 | 3523 ft | 117 kts | 282° |
| 2026-04-26 15:05 | 51.59804 | 7.54608 | 3590 ft | 127 kts | 283° |
| 2026-04-26 15:05 | 51.60012 | 7.53160 | 3563 ft | 137 kts | 284° |
| 2026-04-26 15:06 | 51.60242 | 7.51655 | 3609 ft | 139 kts | 285° |
| 2026-04-26 15:06 | 51.60486 | 7.50123 | 3611 ft | 143 kts | 284° |
| 2026-04-26 15:06 | 51.60738 | 7.48565 | 3616 ft | 146 kts | 286° |
| 2026-04-26 15:06 | 51.61000 | 7.46987 | 3636 ft | 145 kts | 287° |
| 2026-04-26 15:07 | 51.61502 | 7.43858 | 3671 ft | 145 kts | 283° |
| 2026-04-26 15:07 | 51.61704 | 7.42232 | 3647 ft | 149 kts | 283° |
| 2026-04-26 15:07 | 51.61996 | 7.40635 | 3662 ft | 147 kts | 291° |
| 2026-04-26 15:08 | 51.62316 | 7.39090 | 3677 ft | 147 kts | 284° |
| 2026-04-26 15:08 | 51.62512 | 7.37451 | 3649 ft | 149 kts | 279° |
| 2026-04-26 15:08 | 51.62677 | 7.35803 | 3647 ft | 149 kts | 282° |
| 2026-04-26 15:08 | 51.62867 | 7.34139 | 3570 ft | 153 kts | 281° |
| 2026-04-26 15:09 | 51.63046 | 7.32452 | 3552 ft | 153 kts | 280° |
| 2026-04-26 15:09 | 51.63227 | 7.30776 | 3539 ft | 152 kts | 280° |
| 2026-04-26 15:09 | 51.63396 | 7.29086 | 3503 ft | 153 kts | 280° |
| 2026-04-26 15:09 | 51.63564 | 7.27396 | 3495 ft | 153 kts | 281° |
| 2026-04-26 15:10 | 51.63774 | 7.25722 | 3472 ft | 153 kts | 283° |
| 2026-04-26 15:10 | 51.63897 | 7.24602 | 3462 ft | 153 kts | 281° |
| 2026-04-26 15:10 | 51.64151 | 7.22370 | 3445 ft | 153 kts | 283° |
| 2026-04-26 15:10 | 51.64406 | 7.20701 | 3420 ft | 153 kts | 288° |
| 2026-04-26 15:11 | 51.64655 | 7.19039 | 3421 ft | 152 kts | 280° |
| 2026-04-26 15:11 | 51.64824 | 7.17365 | 3401 ft | 152 kts | 279° |
| 2026-04-26 15:11 | 51.64686 | 7.15712 | 3439 ft | 150 kts | 249° |
| 2026-04-26 15:11 | 51.64133 | 7.14273 | 3412 ft | 153 kts | 234° |
| 2026-04-26 15:12 | 51.63493 | 7.12907 | 3438 ft | 152 kts | 232° |
| 2026-04-26 15:12 | 51.62835 | 7.11576 | 3430 ft | 153 kts | 233° |
| 2026-04-26 15:12 | 51.62202 | 7.10187 | 3401 ft | 155 kts | 237° |
| 2026-04-26 15:12 | 51.61624 | 7.08733 | 3384 ft | 154 kts | 237° |
| 2026-04-26 15:13 | 51.61025 | 7.07332 | 3397 ft | 152 kts | 235° |
| 2026-04-26 15:13 | 51.60408 | 7.05921 | 3353 ft | 155 kts | 238° |
| 2026-04-26 15:13 | 51.59777 | 7.04517 | 3361 ft | 154 kts | 234° |
| 2026-04-26 15:13 | 51.59144 | 7.03132 | 3385 ft | 154 kts | 236° |
| 2026-04-26 15:14 | 51.58506 | 7.01754 | 3403 ft | 153 kts | 234° |
| 2026-04-26 15:14 | 51.57895 | 7.00393 | 3435 ft | 152 kts | 236° |
| 2026-04-26 15:14 | 51.57269 | 6.99036 | 3400 ft | 150 kts | 229° |
| 2026-04-26 15:14 | 51.56502 | 6.97944 | 3427 ft | 146 kts | 213° |
| 2026-04-26 15:15 | 51.55602 | 6.97191 | 3440 ft | 145 kts | 207° |
| 2026-04-26 15:15 | 51.54686 | 6.96466 | 3427 ft | 147 kts | 206° |
| 2026-04-26 15:15 | 51.53775 | 6.95760 | 3431 ft | 144 kts | 206° |
| 2026-04-26 15:15 | 51.52879 | 6.95029 | 3414 ft | 145 kts | 208° |
| 2026-04-26 15:16 | 51.51981 | 6.94269 | 3403 ft | 145 kts | 211° |
| 2026-04-26 15:16 | 51.51122 | 6.93423 | 3409 ft | 146 kts | 210° |
| 2026-04-26 15:16 | 51.50237 | 6.92610 | 3386 ft | 146 kts | 211° |
| 2026-04-26 15:16 | 51.49375 | 6.91774 | 3396 ft | 144 kts | 212° |
| 2026-04-26 15:17 | 51.48512 | 6.90927 | 3384 ft | 147 kts | 211° |
| 2026-04-26 15:17 | 51.47936 | 6.90362 | 3379 ft | 146 kts | 212° |
| 2026-04-26 15:17 | 51.46804 | 6.89163 | 3375 ft | 145 kts | 215° |
| 2026-04-26 15:17 | 51.45994 | 6.88212 | 3370 ft | 145 kts | 216° |
| 2026-04-26 15:18 | 51.45227 | 6.87152 | 3415 ft | 145 kts | 233° |
| 2026-04-26 15:18 | 51.44673 | 6.85806 | 3381 ft | 146 kts | 237° |
| 2026-04-26 15:18 | 51.44050 | 6.84500 | 3369 ft | 147 kts | 233° |
| 2026-04-26 15:18 | 51.43430 | 6.83218 | 3404 ft | 145 kts | 232° |
| 2026-04-26 15:19 | 51.42853 | 6.81856 | 3344 ft | 149 kts | 239° |
| 2026-04-26 15:19 | 51.42320 | 6.80483 | 3395 ft | 143 kts | 240° |
| 2026-04-26 15:19 | 51.41809 | 6.79108 | 3370 ft | 145 kts | 241° |
| 2026-04-26 15:19 | 51.41315 | 6.77705 | 3394 ft | 144 kts | 243° |
| 2026-04-26 15:20 | 51.40849 | 6.76290 | 3409 ft | 145 kts | 243° |
| 2026-04-26 15:20 | 51.40383 | 6.74885 | 3437 ft | 143 kts | 253° |
| 2026-04-26 15:20 | 51.40171 | 6.73335 | 3452 ft | 143 kts | 262° |
| 2026-04-26 15:20 | 51.39982 | 6.71772 | 3442 ft | 143 kts | 258° |
| 2026-04-26 15:21 | 51.39766 | 6.70232 | 3453 ft | 141 kts | 258° |
| 2026-04-26 15:21 | 51.39575 | 6.68687 | 3435 ft | 142 kts | 263° |
| 2026-04-26 15:21 | 51.39495 | 6.67118 | 3434 ft | 141 kts | 266° |
| 2026-04-26 15:21 | 51.39355 | 6.65564 | 3445 ft | 141 kts | 260° |
| 2026-04-26 15:22 | 51.39159 | 6.64027 | 3442 ft | 141 kts | 261° |
| 2026-04-26 15:22 | 51.38963 | 6.62484 | 3450 ft | 142 kts | 260° |
| 2026-04-26 15:22 | 51.38780 | 6.60932 | 3452 ft | 141 kts | 260° |
| 2026-04-26 15:22 | 51.38592 | 6.59388 | 3448 ft | 141 kts | 261° |
| 2026-04-26 15:23 | 51.38381 | 6.57862 | 3452 ft | 140 kts | 259° |
| 2026-04-26 15:23 | 51.38167 | 6.56335 | 3469 ft | 140 kts | 259° |
| 2026-04-26 15:23 | 51.37995 | 6.54802 | 3482 ft | 140 kts | 264° |
| 2026-04-26 15:23 | 51.37833 | 6.53265 | 3476 ft | 140 kts | 262° |
| 2026-04-26 15:24 | 51.37641 | 6.51741 | 3483 ft | 140 kts | 261° |
| 2026-04-26 15:24 | 51.37463 | 6.50211 | 3479 ft | 140 kts | 260° |
| 2026-04-26 15:24 | 51.37210 | 6.48705 | 3486 ft | 140 kts | 254° |
| 2026-04-26 15:24 | 51.36944 | 6.47207 | 3489 ft | 141 kts | 257° |
| 2026-04-26 15:25 | 51.36705 | 6.45708 | 3477 ft | 141 kts | 254° |
| 2026-04-26 15:25 | 51.36425 | 6.44757 | 3480 ft | 140 kts | 240° |
| 2026-04-26 15:25 | 51.35614 | 6.43139 | 3469 ft | 142 kts | 232° |
| 2026-04-26 15:25 | 51.34992 | 6.41901 | 3462 ft | 143 kts | 233° |
| 2026-04-26 15:26 | 51.34370 | 6.40665 | 3471 ft | 142 kts | 234° |
| 2026-04-26 15:26 | 51.33766 | 6.39416 | 3483 ft | 142 kts | 233° |
| 2026-04-26 15:26 | 51.33154 | 6.38176 | 3483 ft | 143 kts | 232° |
| 2026-04-26 15:26 | 51.32518 | 6.36959 | 3494 ft | 143 kts | 232° |
| 2026-04-26 15:27 | 51.31886 | 6.35737 | 3505 ft | 142 kts | 232° |
| 2026-04-26 15:27 | 51.31288 | 6.34480 | 3520 ft | 142 kts | 236° |
| 2026-04-26 15:27 | 51.30702 | 6.33210 | 3539 ft | 142 kts | 234° |
| 2026-04-26 15:27 | 51.30113 | 6.31949 | 3566 ft | 141 kts | 234° |
| 2026-04-26 15:28 | 51.29421 | 6.30838 | 3545 ft | 144 kts | 214° |
| 2026-04-26 15:28 | 51.28505 | 6.30300 | 3593 ft | 142 kts | 195° |
| 2026-04-26 15:28 | 51.27543 | 6.29911 | 3602 ft | 144 kts | 196° |
| 2026-04-26 15:28 | 51.26586 | 6.29401 | 3618 ft | 144 kts | 202° |
| 2026-04-26 15:29 | 51.25678 | 6.28740 | 3630 ft | 144 kts | 206° |
| 2026-04-26 15:29 | 51.24752 | 6.28126 | 3622 ft | 144 kts | 199° |
| 2026-04-26 15:29 | 51.22892 | 6.26918 | 3627 ft | 146 kts | 206° |
| 2026-04-26 15:30 | 51.20999 | 6.25799 | 3551 ft | 151 kts | 180° |
| 2026-04-26 15:30 | 51.20047 | 6.26406 | 3568 ft | 147 kts | 139° |
| 2026-04-26 15:30 | 51.19489 | 6.27716 | 3576 ft | 146 kts | 114° |
| 2026-04-26 15:31 | 51.19043 | 6.29198 | 3529 ft | 149 kts | 118° |
| 2026-04-26 15:31 | 51.17852 | 6.31808 | 3533 ft | 148 kts | 128° |
| 2026-04-26 15:31 | 51.17263 | 6.33149 | 3523 ft | 147 kts | 119° |
| 2026-04-26 15:32 | 51.16566 | 6.34981 | 3517 ft | 146 kts | 121° |
| 2026-04-26 15:32 | 51.15691 | 6.37310 | 3520 ft | 147 kts | 120° |
| 2026-04-26 15:32 | 51.15187 | 6.38736 | 3491 ft | 148 kts | 117° |
| 2026-04-26 15:33 | 51.14674 | 6.40166 | 3492 ft | 148 kts | 120° |
| 2026-04-26 15:33 | 51.14152 | 6.41564 | 3486 ft | 147 kts | 117° |
| 2026-04-26 15:33 | 51.13691 | 6.43020 | 3466 ft | 147 kts | 116° |
| 2026-04-26 15:33 | 51.13238 | 6.44474 | 3473 ft | 147 kts | 115° |
| 2026-04-26 15:34 | 51.12749 | 6.45906 | 3444 ft | 148 kts | 120° |
| 2026-04-26 15:34 | 51.12201 | 6.47290 | 3434 ft | 148 kts | 121° |
| 2026-04-26 15:34 | 51.11772 | 6.48764 | 3433 ft | 145 kts | 109° |
| 2026-04-26 15:34 | 51.11385 | 6.50266 | 3393 ft | 147 kts | 112° |
| 2026-04-26 15:35 | 51.10935 | 6.51716 | 3393 ft | 145 kts | 118° |
| 2026-04-26 15:35 | 51.10459 | 6.53142 | 3371 ft | 147 kts | 112° |
| 2026-04-26 15:35 | 51.10087 | 6.54648 | 3367 ft | 145 kts | 109° |
| 2026-04-26 15:35 | 51.09694 | 6.56134 | 3362 ft | 146 kts | 112° |
| 2026-04-26 15:36 | 51.09304 | 6.57605 | 3348 ft | 146 kts | 111° |
| 2026-04-26 15:36 | 51.08924 | 6.59101 | 3348 ft | 146 kts | 109° |
| 2026-04-26 15:36 | 51.08555 | 6.60640 | 3335 ft | 145 kts | 109° |
| 2026-04-26 15:36 | 51.08158 | 6.62120 | 3330 ft | 146 kts | 115° |
| 2026-04-26 15:37 | 51.07656 | 6.63508 | 3307 ft | 146 kts | 117° |
| 2026-04-26 15:37 | 51.07182 | 6.64926 | 3324 ft | 145 kts | 115° |
| 2026-04-26 15:37 | 51.06710 | 6.66348 | 3299 ft | 146 kts | 117° |
| 2026-04-26 15:37 | 51.06245 | 6.67780 | 3298 ft | 145 kts | 114° |
| 2026-04-26 15:38 | 51.05780 | 6.69203 | 3294 ft | 146 kts | 115° |
| 2026-04-26 15:38 | 51.05313 | 6.70632 | 3275 ft | 145 kts | 115° |
| 2026-04-26 15:38 | 51.04923 | 6.72103 | 3263 ft | 146 kts | 104° |
| 2026-04-26 15:38 | 51.04658 | 6.73629 | 3314 ft | 140 kts | 105° |
| 2026-04-26 15:39 | 51.04323 | 6.75080 | 3315 ft | 141 kts | 108° |
| 2026-04-26 15:39 | 51.03896 | 6.76515 | 3306 ft | 143 kts | 118° |
| 2026-04-26 15:39 | 51.03382 | 6.77824 | 3332 ft | 142 kts | 119° |
| 2026-04-26 15:39 | 51.03208 | 6.78276 | 3339 ft | 142 kts | 118° |
| 2026-04-26 15:40 | 51.02368 | 6.80517 | 3332 ft | 143 kts | 117° |
| 2026-04-26 15:40 | 51.01870 | 6.81875 | 3366 ft | 141 kts | 118° |
| 2026-04-26 15:40 | 51.01375 | 6.83222 | 3375 ft | 143 kts | 117° |
| 2026-04-26 15:40 | 51.00915 | 6.84613 | 3402 ft | 142 kts | 115° |
| 2026-04-26 15:41 | 51.00466 | 6.86008 | 3429 ft | 141 kts | 114° |
| 2026-04-26 15:41 | 51.00068 | 6.87443 | 3433 ft | 143 kts | 108° |
| 2026-04-26 15:41 | 50.99836 | 6.88415 | 3451 ft | 141 kts | 109° |
| 2026-04-26 15:41 | 50.99296 | 6.89724 | 3492 ft | 140 kts | 137° |
| 2026-04-26 15:42 | 50.98559 | 6.90746 | 3497 ft | 143 kts | 129° |
| 2026-04-26 15:42 | 50.97937 | 6.91996 | 3474 ft | 143 kts | 125° |
| 2026-04-26 15:42 | 50.97359 | 6.93237 | 3504 ft | 141 kts | 126° |
| 2026-04-26 15:42 | 50.96732 | 6.94463 | 3516 ft | 143 kts | 128° |
| 2026-04-26 15:43 | 50.96088 | 6.95646 | 3552 ft | 141 kts | 130° |
| 2026-04-26 15:43 | 50.95417 | 6.96788 | 3563 ft | 142 kts | 130° |
| 2026-04-26 15:43 | 50.94145 | 6.99205 | 3606 ft | 144 kts | 128° |
| 2026-04-26 15:44 | 50.93514 | 7.00444 | 3595 ft | 145 kts | 127° |
| 2026-04-26 15:44 | 50.92252 | 7.02925 | 3629 ft | 145 kts | 127° |
| 2026-04-26 15:44 | 50.91598 | 7.04143 | 3647 ft | 144 kts | 129° |
| 2026-04-26 15:45 | 50.90316 | 7.06617 | 3636 ft | 144 kts | 126° |
| 2026-04-26 15:45 | 50.89694 | 7.07845 | 3629 ft | 143 kts | 127° |
| 2026-04-26 15:46 | 50.88409 | 7.10353 | 3584 ft | 144 kts | 127° |
| 2026-04-26 15:46 | 50.87765 | 7.11591 | 3523 ft | 147 kts | 128° |
| 2026-04-26 15:46 | 50.87100 | 7.12803 | 3533 ft | 146 kts | 130° |
| 2026-04-26 15:46 | 50.86636 | 7.13581 | 3521 ft | 147 kts | 131° |
| 2026-04-26 15:47 | 50.85528 | 7.14797 | 3483 ft | 147 kts | 164° |
| 2026-04-26 15:47 | 50.83502 | 7.15183 | 3452 ft | 147 kts | 176° |
| 2026-04-26 15:47 | 50.82472 | 7.15270 | 3427 ft | 149 kts | 175° |
| 2026-04-26 15:48 | 50.81452 | 7.15419 | 3457 ft | 147 kts | 175° |
| 2026-04-26 15:48 | 50.80424 | 7.15541 | 3409 ft | 148 kts | 176° |
| 2026-04-26 15:48 | 50.79390 | 7.15602 | 3420 ft | 148 kts | 179° |
| 2026-04-26 15:48 | 50.78359 | 7.15579 | 3425 ft | 149 kts | 181° |
| 2026-04-26 15:49 | 50.77314 | 7.15541 | 3411 ft | 150 kts | 180° |
| 2026-04-26 15:49 | 50.76379 | 7.16103 | 3464 ft | 144 kts | 135° |
| 2026-04-26 15:49 | 50.75669 | 7.17208 | 3456 ft | 145 kts | 132° |
| 2026-04-26 15:49 | 50.74983 | 7.18379 | 3428 ft | 146 kts | 130° |
| 2026-04-26 15:50 | 50.74310 | 7.19560 | 3444 ft | 146 kts | 130° |
| 2026-04-26 15:50 | 50.73610 | 7.20710 | 3435 ft | 146 kts | 132° |
| 2026-04-26 15:50 | 50.72901 | 7.21866 | 3423 ft | 146 kts | 130° |
| 2026-04-26 15:50 | 50.72225 | 7.23061 | 3421 ft | 145 kts | 131° |
| 2026-04-26 15:51 | 50.71521 | 7.24218 | 3422 ft | 147 kts | 133° |
| 2026-04-26 15:51 | 50.70796 | 7.25350 | 3423 ft | 146 kts | 134° |
| 2026-04-26 15:51 | 50.70043 | 7.26451 | 3420 ft | 147 kts | 136° |
| 2026-04-26 15:51 | 50.69274 | 7.27533 | 3434 ft | 149 kts | 136° |
| 2026-04-26 15:52 | 50.68487 | 7.28600 | 3425 ft | 150 kts | 137° |
| 2026-04-26 15:52 | 50.67719 | 7.29689 | 3428 ft | 147 kts | 135° |
| 2026-04-26 15:52 | 50.67005 | 7.30848 | 3423 ft | 147 kts | 131° |
| 2026-04-26 15:52 | 50.66543 | 7.31624 | 3418 ft | 147 kts | 131° |
| 2026-04-26 15:53 | 50.65582 | 7.33148 | 3423 ft | 146 kts | 134° |
| 2026-04-26 15:53 | 50.64840 | 7.34238 | 3419 ft | 146 kts | 135° |
| 2026-04-26 15:53 | 50.64087 | 7.35321 | 3433 ft | 147 kts | 133° |
| 2026-04-26 15:53 | 50.63375 | 7.36472 | 3449 ft | 147 kts | 130° |
| 2026-04-26 15:54 | 50.62679 | 7.37663 | 3468 ft | 147 kts | 130° |
| 2026-04-26 15:54 | 50.61998 | 7.38869 | 3474 ft | 148 kts | 129° |
| 2026-04-26 15:54 | 50.61311 | 7.40078 | 3477 ft | 147 kts | 129° |
| 2026-04-26 15:54 | 50.60609 | 7.41262 | 3478 ft | 149 kts | 129° |
| 2026-04-26 15:55 | 50.59901 | 7.42445 | 3485 ft | 147 kts | 129° |
| 2026-04-26 15:55 | 50.59211 | 7.43629 | 3526 ft | 147 kts | 130° |
| 2026-04-26 15:55 | 50.58505 | 7.44806 | 3519 ft | 147 kts | 133° |
| 2026-04-26 15:55 | 50.57723 | 7.45842 | 3525 ft | 146 kts | 141° |
| 2026-04-26 15:56 | 50.56959 | 7.46883 | 3542 ft | 145 kts | 132° |
| 2026-04-26 15:56 | 50.56301 | 7.48080 | 3539 ft | 145 kts | 129° |
| 2026-04-26 15:56 | 50.55713 | 7.49341 | 3513 ft | 145 kts | 121° |
| 2026-04-26 15:56 | 50.55145 | 7.50674 | 3507 ft | 144 kts | 126° |
| 2026-04-26 15:57 | 50.54540 | 7.51915 | 3536 ft | 146 kts | 121° |
| 2026-04-26 15:57 | 50.54321 | 7.53400 | 3631 ft | 139 kts | 77° |
| 2026-04-26 15:57 | 50.54754 | 7.54683 | 3727 ft | 133 kts | 53° |
| 2026-04-26 15:57 | 50.55144 | 7.55482 | 3637 ft | 139 kts | 47° |
| 2026-04-26 15:58 | 50.55951 | 7.57056 | 3649 ft | 139 kts | 53° |
| 2026-04-26 15:58 | 50.56501 | 7.58310 | 3644 ft | 139 kts | 55° |
| 2026-04-26 15:58 | 50.57068 | 7.59542 | 3653 ft | 139 kts | 51° |
| 2026-04-26 15:58 | 50.57599 | 7.60821 | 3660 ft | 140 kts | 56° |
| 2026-04-26 15:59 | 50.58118 | 7.62115 | 3675 ft | 139 kts | 56° |
| 2026-04-26 15:59 | 50.58635 | 7.63412 | 3666 ft | 140 kts | 57° |
| 2026-04-26 15:59 | 50.59135 | 7.64729 | 3688 ft | 140 kts | 54° |
| 2026-04-26 15:59 | 50.59649 | 7.66039 | 3664 ft | 142 kts | 55° |
| 2026-04-26 16:00 | 50.60196 | 7.67317 | 3675 ft | 140 kts | 54° |
| 2026-04-26 16:00 | 50.60761 | 7.68573 | 3664 ft | 141 kts | 52° |
| 2026-04-26 16:00 | 50.61325 | 7.69837 | 3660 ft | 141 kts | 53° |
| 2026-04-26 16:00 | 50.61878 | 7.71106 | 3635 ft | 140 kts | 54° |
| 2026-04-26 16:01 | 50.62436 | 7.72345 | 3600 ft | 141 kts | 52° |
| 2026-04-26 16:01 | 50.63002 | 7.73614 | 3587 ft | 142 kts | 54° |
| 2026-04-26 16:01 | 50.63564 | 7.74886 | 3584 ft | 141 kts | 53° |
| 2026-04-26 16:01 | 50.64133 | 7.76149 | 3559 ft | 141 kts | 52° |
| 2026-04-26 16:02 | 50.64716 | 7.77388 | 3565 ft | 141 kts | 52° |
| 2026-04-26 16:02 | 50.65302 | 7.78627 | 3546 ft | 141 kts | 52° |
| 2026-04-26 16:02 | 50.65877 | 7.79890 | 3534 ft | 141 kts | 53° |
| 2026-04-26 16:02 | 50.66249 | 7.80719 | 3487 ft | 140 kts | 54° |
| 2026-04-26 16:03 | 50.66970 | 7.82456 | 3385 ft | 141 kts | 59° |
| 2026-04-26 16:03 | 50.67452 | 7.83803 | 3336 ft | 141 kts | 57° |
| 2026-04-26 16:03 | 50.67974 | 7.85113 | 3262 ft | 142 kts | 56° |
| 2026-04-26 16:03 | 50.68488 | 7.86434 | 3188 ft | 140 kts | 58° |
| 2026-04-26 16:04 | 50.69001 | 7.87748 | 3076 ft | 141 kts | 56° |
| 2026-04-26 16:04 | 50.69536 | 7.89042 | 2978 ft | 140 kts | 53° |
| 2026-04-26 16:04 | 50.70097 | 7.90278 | 2927 ft | 137 kts | 52° |
| 2026-04-26 16:04 | 50.70696 | 7.91430 | 2851 ft | 139 kts | 47° |
| 2026-04-26 16:05 | 50.71292 | 7.92582 | 2933 ft | 128 kts | 51° |
| 2026-04-26 16:05 | 50.71777 | 7.93710 | 2928 ft | 126 kts | 59° |
| 2026-04-26 16:05 | 50.72029 | 7.95055 | 2832 ft | 130 kts | 84° |
| 2026-04-26 16:05 | 50.71961 | 7.96460 | 2841 ft | 128 kts | 100° |
| 2026-04-26 16:06 | 50.71789 | 7.97813 | 2813 ft | 122 kts | 97° |
| 2026-04-26 16:06 | 50.71696 | 7.99027 | 2877 ft | 105 kts | 94° |
| 2026-04-26 16:06 | 50.71645 | 8.00165 | 2822 ft | 101 kts | 91° |
| 2026-04-26 16:06 | 50.71619 | 8.01243 | 2773 ft | 98 kts | 90° |
| 2026-04-26 16:07 | 50.71593 | 8.02292 | 2761 ft | 93 kts | 91° |
| 2026-04-26 16:07 | 50.71574 | 8.03326 | 2710 ft | 94 kts | 90° |
| 2026-04-26 16:07 | 50.71394 | 8.04247 | 2709 ft | 90 kts | 122° |
| 2026-04-26 16:07 | 50.70967 | 8.04993 | 2668 ft | 91 kts | 137° |
| 2026-04-26 16:08 | 50.70549 | 8.05701 | 2676 ft | 87 kts | 137° |
| 2026-04-26 16:08 | 50.70217 | 8.06018 | 2697 ft | 83 kts | 151° |
| 2026-04-26 16:08 | 50.69601 | 8.06743 | 2661 ft | 84 kts | 122° |
| 2026-04-26 16:08 | 50.69275 | 8.07480 | 2677 ft | 81 kts | 121° |
| 2026-04-26 16:09 | 50.68973 | 8.08252 | 2661 ft | 82 kts | 116° |
| 2026-04-26 16:09 | 50.68675 | 8.08998 | 2665 ft | 82 kts | 126° |
| 2026-04-26 16:09 | 50.68308 | 8.09677 | 2665 ft | 81 kts | 126° |
| 2026-04-26 16:09 | 50.67968 | 8.10380 | 2651 ft | 82 kts | 122° |
| 2026-04-26 16:10 | 50.67643 | 8.11103 | 2642 ft | 81 kts | 128° |
| 2026-04-26 16:10 | 50.67573 | 8.11890 | 2628 ft | 77 kts | 50° |
| 2026-04-26 16:10 | 50.67971 | 8.12469 | 2588 ft | 80 kts | 39° |
| 2026-04-26 16:10 | 50.68428 | 8.12917 | 2557 ft | 79 kts | 354° |
| 2026-04-26 16:11 | 50.68781 | 8.12270 | 2487 ft | 85 kts | 302° |
| 2026-04-26 16:11 | 50.69124 | 8.11544 | 2452 ft | 80 kts | 312° |
| 2026-04-26 16:11 | 50.69480 | 8.10873 | 2361 ft | 79 kts | 311° |
| 2026-04-26 16:11 | 50.69819 | 8.10204 | 2230 ft | 76 kts | 311° |
| 2026-04-26 16:12 | 50.70147 | 8.09545 | 2098 ft | 77 kts | 311° |
| 2026-04-26 16:12 | 50.70468 | 8.08887 | 1970 ft | 73 kts | 312° |
| 2026-04-26 16:12 | 50.70879 | 8.08078 | 1960 ft | 18 kts | 304° |
| 2026-04-26 16:13 | 50.70891 | 8.07962 | 1963 ft | 7 kts | 234° |
| 2026-04-26 16:13 | 50.70862 | 8.07919 | 1965 ft | 6 kts | 221° |
| 2026-04-26 16:13 | 50.70858 | 8.07913 | 1965 ft | 0 kts | 218° |
| 2026-04-26 16:14 | 50.70858 | 8.07912 | 1965 ft | 1 kts | 218° |
| 2026-04-26 16:14 | 50.70803 | 8.07843 | 1971 ft | 4 kts | 196° |
| 2026-04-26 16:15 | 50.70772 | 8.07860 | 1971 ft | 6 kts | 137° |
| 2026-04-26 16:15 | 50.70735 | 8.07929 | 1966 ft | 11 kts | 127° |
| 2026-04-26 16:15 | 50.70711 | 8.07993 | 1958 ft | 8 kts | 135° |
| 2026-04-26 16:16 | 50.70635 | 8.07983 | 1958 ft | 5 kts | 218° |
| 2026-04-26 16:16 | 50.70614 | 8.07957 | 1961 ft | 3 kts | 218° |
| 2026-04-26 16:16 | 50.70592 | 8.07925 | 1964 ft | 6 kts | 226° |
| 2026-04-26 16:16 | 50.70572 | 8.07875 | 1965 ft | 3 kts | 292° |
| 2026-04-26 16:17 | 50.70577 | 8.07861 | 1965 ft | 0 kts | 287° |
| 2026-04-26 16:17 | 50.70577 | 8.07858 | 1965 ft | 1 kts | 258° |
| 2026-04-26 16:17 | 50.70577 | 8.07856 | 1965 ft | 0 kts | 239° |
| 2026-04-26 16:17 | 50.70572 | 8.07852 | 1965 ft | 0 kts | 179° |